createdAt,value
2018-05-10T00:01:41.327Z,24.93
2018-05-10T00:04:12.111Z,22.85
2018-05-10T00:06:38.795Z,23.83
2018-05-10T00:09:05.486Z,23.42
2018-05-10T00:11:32.886Z,22.02
2018-05-10T00:13:59.546Z,24.63
2018-05-10T00:16:26.187Z,26.02
2018-05-10T00:18:53.162Z,23.07
2018-05-10T00:21:19.831Z,27.42
2018-05-10T00:23:46.558Z,22.15
2018-05-10T00:26:13.258Z,24.87
2018-05-10T00:28:39.941Z,23.58
2018-05-10T00:31:06.621Z,23.20
2018-05-10T00:33:33.233Z,23.20
2018-05-10T00:35:59.943Z,26.73
2018-05-10T00:38:26.597Z,24.48
2018-05-10T00:40:53.433Z,24.55
2018-05-10T00:43:24.217Z,27.45
2018-05-10T00:45:50.983Z,23.35
2018-05-10T00:48:17.612Z,22.70
2018-05-10T00:50:44.291Z,26.08
2018-05-10T00:53:10.944Z,25.23
2018-05-10T00:55:37.635Z,26.08
2018-05-10T00:58:04.351Z,24.35
2018-05-10T01:00:31.046Z,25.85
2018-05-10T01:02:57.722Z,27.45
2018-05-10T01:05:24.362Z,24.98
2018-05-10T01:07:51.010Z,26.15
2018-05-10T01:10:17.685Z,25.12
2018-05-10T01:12:44.354Z,26.00
2018-05-10T01:15:10.987Z,24.87
2018-05-10T01:17:37.652Z,24.90
2018-05-10T01:20:04.264Z,24.00
2018-05-10T01:22:31.219Z,24.17
2018-05-10T01:24:58.091Z,24.40
2018-05-10T01:27:24.752Z,28.80
2018-05-10T01:29:51.441Z,27.00
2018-05-10T01:32:18.054Z,25.17
2018-05-10T01:35:02.576Z,29.10
2018-05-10T01:37:29.225Z,23.65
2018-05-10T01:39:55.918Z,24.90
2018-05-10T01:42:22.588Z,28.52
2018-05-10T01:44:49.258Z,25.85
2018-05-10T01:47:15.901Z,26.30
2018-05-10T01:49:42.542Z,24.45
2018-05-10T01:52:09.186Z,27.52
2018-05-10T01:54:35.895Z,27.10
2018-05-10T01:57:02.591Z,26.60
2018-05-10T01:59:29.248Z,26.30
2018-05-10T02:01:55.939Z,25.35
2018-05-10T02:04:22.631Z,25.80
2018-05-10T02:06:49.288Z,25.30
2018-05-10T02:09:15.977Z,23.50
2018-05-10T02:11:42.587Z,24.30
2018-05-10T02:14:09.977Z,26.60
2018-05-10T02:16:36.603Z,24.75
2018-05-10T02:19:03.539Z,25.00
2018-05-10T02:21:30.239Z,27.20
2018-05-10T02:23:56.921Z,26.25
2018-05-10T02:26:23.582Z,26.60
2018-05-10T02:28:50.262Z,23.15
2018-05-10T02:31:16.911Z,27.62
2018-05-10T02:33:43.547Z,26.70
2018-05-10T02:36:10.312Z,24.23
2018-05-10T02:38:36.997Z,27.83
2018-05-10T02:41:04.009Z,26.23
2018-05-10T02:43:30.681Z,27.40
2018-05-10T02:45:57.334Z,25.95
2018-05-10T02:48:23.975Z,25.58
2018-05-10T02:50:50.673Z,26.62
2018-05-10T02:53:17.804Z,31.23
2018-05-10T02:55:44.460Z,26.65
2018-05-10T02:58:11.080Z,27.50
2018-05-10T03:00:37.751Z,27.90
2018-05-10T03:03:04.441Z,27.08
2018-05-10T03:05:31.079Z,27.48
2018-05-10T03:07:57.721Z,26.65
2018-05-10T03:10:24.346Z,28.85
2018-05-10T03:12:50.991Z,26.15
2018-05-10T03:15:17.702Z,27.67
2018-05-10T03:17:44.380Z,26.55
2018-05-10T03:20:11.791Z,30.08
2018-05-10T03:22:38.479Z,30.33
2018-05-10T03:25:08.942Z,29.08
2018-05-10T03:27:35.727Z,31.15
2018-05-10T03:30:02.447Z,35.78
2018-05-10T03:32:29.091Z,36.03
2018-05-10T03:34:55.757Z,43.47
2018-05-10T03:37:22.418Z,49.85
2018-05-10T03:39:49.320Z,57.33
2018-05-10T03:42:15.947Z,63.67
2018-05-10T03:44:42.598Z,62.10
2018-05-10T03:47:09.507Z,66.90
2018-05-10T03:49:36.167Z,68.53
2018-05-10T03:52:02.804Z,69.00
2018-05-10T03:54:29.470Z,76.60
2018-05-10T03:56:56.088Z,78.22
2018-05-10T03:59:22.743Z,79.20
2018-05-10T04:01:49.391Z,82.75
2018-05-10T04:04:22.950Z,78.80
2018-05-10T04:06:55.679Z,82.80
2018-05-10T04:09:43.126Z,81.15
2018-05-10T04:12:09.802Z,88.05
2018-05-10T04:14:36.510Z,84.43
2018-05-10T04:17:03.181Z,86.03
2018-05-10T04:19:29.817Z,87.22
2018-05-10T04:21:56.483Z,86.22
2018-05-10T04:24:23.143Z,90.65
2018-05-10T04:26:49.782Z,95.65
2018-05-10T04:29:16.459Z,94.22
2018-05-10T04:31:43.120Z,82.75
2018-05-10T04:34:09.775Z,91.80
2018-05-10T04:36:36.466Z,85.28
2018-05-10T04:39:03.157Z,90.93
2018-05-10T04:41:33.754Z,84.90
2018-05-10T04:44:00.378Z,85.90
2018-05-10T04:46:27.057Z,83.10
2018-05-10T04:48:53.738Z,88.03
2018-05-10T04:51:20.370Z,85.85
2018-05-10T04:53:47.017Z,84.65
2018-05-10T04:56:13.742Z,87.45
2018-05-10T04:58:40.309Z,90.70
2018-05-10T05:01:06.967Z,85.12
2018-05-10T05:03:33.634Z,83.43
2018-05-10T05:06:00.316Z,83.07
2018-05-10T05:08:26.967Z,85.28
2018-05-10T05:10:53.597Z,84.93
2018-05-10T05:13:20.258Z,84.70
2018-05-10T05:15:46.887Z,78.80
2018-05-10T05:18:13.504Z,83.32
2018-05-10T05:20:40.154Z,78.80
2018-05-10T05:23:06.798Z,86.25
2018-05-10T05:25:33.467Z,73.78
2018-05-10T05:28:00.096Z,82.72
2018-05-10T05:30:26.719Z,73.10
2018-05-10T05:32:53.356Z,80.15
2018-05-10T05:35:20.018Z,77.35
2018-05-10T05:37:46.655Z,73.15
2018-05-10T05:40:13.536Z,80.75
2018-05-10T05:42:40.178Z,76.03
2018-05-10T05:45:06.824Z,71.90
2018-05-10T05:47:33.469Z,75.05
2018-05-10T05:50:00.100Z,82.50
2018-05-10T05:52:26.754Z,73.55
2018-05-10T05:54:53.411Z,71.40
2018-05-10T05:57:20.283Z,71.65
2018-05-10T05:59:46.942Z,71.18
2018-05-10T06:02:13.594Z,67.95
2018-05-10T06:04:40.446Z,65.80
2018-05-10T06:07:07.138Z,61.53
2018-05-10T06:09:33.778Z,64.55
2018-05-10T06:12:00.430Z,64.25
2018-05-10T06:14:27.101Z,62.42
2018-05-10T06:16:53.751Z,61.97
2018-05-10T06:19:20.384Z,68.40
2018-05-10T06:21:47.021Z,61.47
2018-05-10T06:24:13.683Z,62.97
2018-05-10T06:26:40.331Z,59.47
2018-05-10T06:29:06.972Z,60.80
2018-05-10T06:31:33.611Z,61.45
2018-05-10T06:34:00.291Z,63.40
2018-05-10T06:36:26.934Z,53.92
2018-05-10T06:38:53.591Z,58.45
2018-05-10T06:41:20.232Z,53.50
2018-05-10T06:43:46.916Z,60.50
2018-05-10T06:46:13.544Z,57.22
2018-05-10T06:48:40.203Z,53.63
2018-05-10T06:51:06.835Z,56.22
2018-05-10T06:53:33.496Z,52.95
2018-05-10T06:56:00.302Z,55.30
2018-05-10T06:58:26.962Z,52.08
2018-05-10T07:00:53.587Z,51.80
2018-05-10T07:03:20.312Z,48.97
2018-05-10T07:05:46.907Z,51.10
2018-05-10T07:08:13.567Z,51.97
2018-05-10T07:10:40.235Z,50.27
2018-05-10T07:13:06.868Z,50.30
2018-05-10T07:15:33.530Z,46.73
2018-05-10T07:18:00.206Z,47.10
2018-05-10T07:20:27.011Z,45.00
2018-05-10T07:22:53.635Z,44.50
2018-05-10T07:25:20.373Z,44.00
2018-05-10T07:27:46.899Z,44.93
2018-05-10T07:30:13.547Z,43.37
2018-05-10T07:32:40.213Z,44.50
2018-05-10T07:35:06.862Z,41.23
2018-05-10T07:37:33.508Z,48.27
2018-05-10T07:40:00.252Z,44.20
2018-05-10T07:42:27.048Z,43.43
2018-05-10T07:44:53.824Z,44.03
2018-05-10T07:47:20.509Z,42.77
2018-05-10T07:49:47.246Z,46.70
2018-05-10T07:52:13.933Z,42.73
2018-05-10T07:54:40.664Z,43.80
2018-05-10T07:57:07.367Z,42.47
2018-05-10T07:59:34.095Z,42.38
2018-05-10T08:02:00.834Z,44.55
2018-05-10T08:04:27.547Z,46.85
2018-05-10T08:06:54.255Z,43.30
2018-05-10T08:09:20.986Z,43.55
2018-05-10T08:11:47.754Z,44.37
2018-05-10T08:14:14.526Z,45.45
2018-05-10T08:16:41.267Z,44.67
2018-05-10T08:19:08.105Z,44.33
2018-05-10T08:21:34.835Z,48.80
2018-05-10T08:24:01.534Z,45.37
2018-05-10T08:26:28.421Z,41.65
2018-05-10T08:28:55.151Z,42.80
2018-05-10T08:31:21.890Z,46.27
2018-05-10T08:33:48.570Z,46.17
2018-05-10T08:36:15.298Z,41.60
2018-05-10T08:38:42.043Z,40.57
2018-05-10T08:41:08.823Z,43.17
2018-05-10T08:43:35.616Z,41.47
2018-05-10T08:46:02.327Z,41.40
2018-05-10T08:48:29.043Z,38.03
2018-05-10T08:50:55.800Z,38.70
2018-05-10T08:53:22.529Z,41.33
2018-05-10T08:55:49.270Z,39.43
2018-05-10T08:58:16.023Z,40.60
2018-05-10T09:00:42.729Z,37.00
2018-05-10T09:03:09.401Z,39.47
2018-05-10T09:05:36.143Z,36.53
2018-05-10T09:08:02.816Z,36.10
2018-05-10T09:10:29.558Z,37.00
2018-05-10T09:12:56.277Z,36.30
2018-05-10T09:15:22.972Z,36.47
2018-05-10T09:17:49.637Z,38.20
2018-05-10T09:20:16.385Z,35.37
2018-05-10T09:22:43.137Z,38.23
2018-05-10T09:25:09.809Z,33.40
2018-05-10T09:27:36.809Z,33.20
2018-05-10T09:30:03.542Z,34.80
2018-05-10T09:32:30.266Z,34.83
2018-05-10T09:34:56.915Z,30.67
2018-05-10T09:37:23.638Z,31.70
2018-05-10T09:39:50.339Z,32.07
2018-05-10T09:42:17.108Z,31.17
2018-05-10T09:44:43.785Z,29.97
2018-05-10T09:47:10.581Z,31.43
2018-05-10T09:49:37.342Z,33.77
2018-05-10T09:52:05.589Z,29.50
2018-05-10T09:54:32.259Z,31.60
2018-05-10T09:56:59.018Z,28.57
2018-05-10T09:59:25.798Z,28.00
2018-05-10T10:01:52.466Z,27.70
2018-05-10T10:04:19.125Z,31.17
2018-05-10T10:06:45.850Z,28.98
2018-05-10T10:09:12.883Z,28.07
2018-05-10T10:11:39.699Z,27.20
2018-05-10T10:14:06.355Z,29.13
2018-05-10T10:16:33.069Z,27.45
2018-05-10T10:18:59.760Z,27.63
2018-05-10T10:21:26.582Z,27.90
2018-05-10T10:23:53.324Z,33.67
2018-05-10T10:26:20.013Z,33.15
2018-05-10T10:28:46.697Z,31.95
2018-05-10T10:31:13.340Z,31.90
2018-05-10T10:33:39.966Z,34.63
2018-05-10T10:36:06.654Z,31.92
2018-05-10T10:38:33.471Z,29.60
2018-05-10T10:41:00.151Z,28.62
2018-05-10T10:43:28.445Z,33.42
2018-05-10T10:45:55.100Z,30.58
2018-05-10T10:48:21.759Z,33.95
2018-05-10T10:50:49.119Z,31.98
2018-05-10T10:53:17.030Z,30.77
2018-05-10T10:55:45.484Z,32.58
2018-05-10T10:58:12.115Z,33.17
2018-05-10T11:10:23.830Z,30.00
2018-05-10T11:12:50.481Z,32.75
2018-05-10T11:15:17.143Z,34.35
2018-05-10T11:17:43.797Z,37.40
2018-05-10T11:20:10.486Z,37.28
2018-05-10T11:22:37.176Z,37.67
2018-05-10T11:25:03.830Z,34.95
2018-05-10T11:27:30.516Z,38.42
2018-05-10T11:29:57.185Z,41.70
2018-05-10T11:32:23.967Z,37.95
2018-05-10T11:34:51.575Z,39.22
2018-05-10T11:37:18.271Z,37.38
2018-05-10T11:39:44.980Z,39.70
2018-05-10T11:42:11.693Z,38.53
2018-05-10T11:44:38.337Z,41.33
2018-05-10T11:47:05.066Z,40.45
2018-05-10T11:49:31.692Z,40.55
2018-05-10T11:51:58.447Z,39.22
2018-05-10T11:54:25.132Z,34.97
2018-05-10T11:56:51.841Z,37.05
2018-05-10T11:59:18.484Z,37.67
2018-05-10T12:01:45.167Z,36.58
2018-05-10T12:04:11.862Z,40.63
2018-05-10T12:06:38.571Z,39.28
2018-05-10T12:09:05.268Z,35.83
2018-05-10T12:11:31.915Z,37.42
2018-05-10T12:13:58.603Z,35.35
2018-05-10T12:16:25.250Z,38.00
2018-05-10T12:18:51.903Z,41.78
2018-05-10T12:21:18.577Z,39.15
2018-05-10T12:23:45.251Z,38.55
2018-05-10T12:26:11.941Z,41.45
2018-05-10T12:28:38.617Z,35.53
2018-05-10T12:31:05.364Z,34.97
2018-05-10T12:33:32.071Z,34.47
2018-05-10T12:35:58.727Z,34.22
2018-05-10T12:38:25.446Z,34.03
2018-05-10T12:40:52.138Z,36.75
2018-05-10T12:43:18.766Z,33.45
2018-05-10T12:45:45.440Z,31.20
2018-05-10T12:48:12.133Z,32.05
2018-05-10T12:50:38.786Z,29.70
2018-05-10T12:53:05.457Z,33.45
2018-05-10T12:55:32.110Z,31.80
2018-05-10T12:57:58.785Z,30.00
2018-05-10T13:00:25.478Z,28.12
2018-05-10T13:02:52.216Z,31.25
2018-05-10T13:05:18.836Z,31.92
2018-05-10T13:07:45.458Z,28.92
2018-05-10T13:10:12.168Z,33.95
2018-05-10T13:12:38.811Z,29.92
2018-05-10T13:15:05.472Z,31.98
2018-05-10T13:17:32.104Z,32.08
2018-05-10T13:19:58.801Z,28.80
2018-05-10T13:22:25.513Z,31.90
2018-05-10T13:24:52.203Z,34.58
2018-05-10T13:27:18.946Z,31.65
2018-05-10T13:29:45.536Z,30.52
2018-05-10T13:32:12.189Z,30.80
2018-05-10T13:34:38.839Z,29.48
2018-05-10T13:37:05.601Z,28.58
2018-05-10T13:39:32.231Z,30.23
2018-05-10T13:41:59.022Z,31.17
2018-05-10T13:44:25.702Z,28.15
2018-05-10T13:46:52.359Z,26.73
2018-05-10T13:49:19.032Z,29.08
2018-05-10T13:51:45.719Z,29.12
2018-05-10T13:54:12.409Z,26.52
2018-05-10T13:59:12.202Z,27.60
2018-05-10T14:01:38.896Z,24.85
2018-05-10T14:04:05.676Z,24.48
2018-05-10T14:06:32.395Z,22.95
2018-05-10T14:08:59.051Z,20.45
2018-05-10T14:11:25.992Z,21.85
2018-05-10T14:13:52.689Z,21.90
2018-05-10T14:16:19.383Z,24.37
2018-05-10T14:18:46.045Z,22.95
2018-05-10T14:21:12.710Z,23.60
2018-05-10T14:23:39.365Z,22.42
2018-05-10T14:26:07.218Z,22.87
2018-05-10T14:28:33.879Z,23.85
2018-05-10T14:31:00.539Z,23.05
2018-05-10T14:33:27.241Z,23.05
2018-05-10T14:35:53.875Z,21.23
2018-05-10T14:38:20.519Z,27.60
2018-05-10T14:40:47.174Z,23.67
2018-05-10T14:43:13.998Z,25.10
2018-05-10T14:45:40.648Z,22.83
2018-05-10T14:48:07.325Z,23.85
2018-05-10T14:50:33.986Z,23.38
2018-05-10T14:53:00.684Z,30.23
2018-05-10T14:55:27.356Z,24.45
2018-05-10T14:57:53.987Z,24.98
2018-05-10T15:00:20.678Z,23.23
2018-05-10T15:02:47.343Z,23.73
2018-05-10T15:05:14.049Z,24.58
2018-05-10T15:07:40.668Z,27.70
2018-05-10T15:10:07.330Z,25.67
2018-05-10T15:12:34.075Z,25.20
2018-05-10T15:15:00.734Z,26.98
2018-05-10T15:17:27.396Z,25.95
2018-05-10T15:19:54.092Z,25.90
2018-05-10T15:22:20.810Z,27.08
2018-05-10T15:24:47.481Z,25.35
2018-05-10T15:27:14.875Z,29.30
2018-05-10T15:29:41.602Z,28.38
2018-05-10T15:32:08.517Z,26.37
2018-05-10T15:34:35.172Z,29.87
2018-05-10T15:37:01.851Z,32.13
2018-05-10T15:39:28.509Z,28.23
2018-05-10T15:41:55.155Z,29.50
2018-05-10T15:44:21.825Z,28.20
2018-05-10T15:46:48.483Z,27.67
2018-05-10T15:49:15.125Z,27.67
2018-05-10T15:51:41.851Z,25.83
2018-05-10T15:54:08.752Z,30.92
2018-05-10T15:56:35.419Z,25.98
2018-05-10T15:59:02.140Z,30.73
2018-05-10T16:01:28.825Z,30.60
2018-05-10T16:03:55.498Z,29.35
2018-05-10T16:06:22.127Z,33.60
2018-05-10T16:08:48.781Z,31.50
2018-05-10T16:11:15.472Z,31.92
2018-05-10T16:13:42.180Z,29.60
2018-05-10T16:16:08.849Z,31.95
2018-05-10T16:18:35.542Z,29.67
2018-05-10T16:21:02.166Z,30.83
2018-05-10T16:23:28.867Z,31.33
2018-05-10T16:25:55.505Z,35.30
2018-05-10T16:28:22.164Z,33.75
2018-05-10T16:30:48.791Z,31.10
2018-05-10T16:33:15.445Z,31.85
2018-05-10T16:35:42.071Z,30.17
2018-05-10T16:38:08.732Z,33.75
2018-05-10T16:40:35.414Z,33.42
2018-05-10T16:43:02.053Z,32.03
2018-05-10T16:45:28.737Z,34.80
2018-05-10T16:47:55.414Z,34.78
2018-05-10T16:50:22.093Z,34.92
2018-05-10T16:52:48.781Z,36.95
2018-05-10T16:55:15.501Z,32.30
2018-05-10T16:57:42.175Z,32.53
2018-05-10T17:00:08.811Z,34.58
2018-05-10T17:02:35.451Z,35.60
2018-05-10T17:05:02.135Z,33.30
2018-05-10T17:07:28.809Z,37.17
2018-05-10T17:09:55.501Z,36.92
2018-05-10T17:12:22.183Z,38.13
2018-05-10T17:14:48.839Z,37.55
2018-05-10T17:17:15.813Z,36.33
2018-05-10T17:19:42.517Z,37.45
2018-05-10T17:22:09.186Z,39.83
2018-05-10T17:24:35.872Z,36.75
2018-05-10T17:27:06.514Z,41.70
2018-05-10T17:29:33.407Z,37.30
2018-05-10T17:32:00.128Z,36.67
2018-05-10T17:34:26.799Z,41.33
2018-05-10T17:36:53.456Z,38.50
2018-05-10T17:39:20.152Z,39.35
2018-05-10T17:41:46.895Z,40.83
2018-05-10T17:44:13.516Z,41.40
2018-05-10T17:46:40.244Z,39.60
2018-05-10T17:49:06.929Z,39.85
2018-05-10T17:51:33.628Z,40.63
2018-05-10T17:54:01.086Z,46.72
2018-05-10T17:56:27.778Z,42.30
2018-05-10T17:58:54.881Z,42.75
2018-05-10T18:01:21.581Z,40.88
2018-05-10T18:03:48.216Z,41.63
2018-05-10T18:06:14.955Z,44.00
2018-05-10T18:08:41.615Z,46.42
2018-05-10T18:11:08.371Z,45.15
2018-05-10T18:13:35.100Z,43.25
2018-05-10T18:16:01.703Z,45.67
2018-05-10T18:18:28.390Z,44.47
2018-05-10T18:20:55.038Z,44.03
2018-05-10T18:23:22.090Z,43.00
2018-05-10T18:25:48.777Z,40.35
2018-05-10T18:28:15.441Z,44.05
2018-05-10T18:30:42.151Z,43.22
2018-05-10T18:33:08.933Z,46.15
2018-05-10T18:35:35.575Z,47.92
2018-05-10T18:38:03.231Z,44.60
2018-05-10T18:40:29.944Z,45.05
2018-05-10T18:42:56.624Z,49.08
2018-05-10T18:45:23.684Z,45.22
2018-05-10T18:47:50.448Z,42.10
2018-05-10T18:50:17.174Z,49.92
2018-05-10T18:52:43.877Z,48.38
2018-05-10T18:55:10.629Z,43.78
2018-05-10T18:57:37.329Z,45.60
2018-05-10T19:00:04.119Z,49.88
2018-05-10T19:02:30.868Z,48.65
2018-05-10T19:04:57.604Z,44.15
2018-05-10T19:07:24.481Z,46.10
2018-05-10T19:09:51.404Z,51.58
2018-05-10T19:12:18.195Z,51.40
2018-05-10T19:14:45.107Z,54.38
2018-05-10T19:17:11.892Z,45.75
2018-05-10T19:19:38.723Z,50.10
2018-05-10T19:22:05.583Z,51.95
2018-05-10T19:24:32.434Z,42.38
2018-05-10T19:26:59.220Z,43.30
2018-05-10T19:29:25.909Z,45.20
2018-05-10T19:31:52.702Z,39.38
2018-05-10T19:34:19.399Z,38.63
2018-05-10T19:36:46.320Z,36.17
2018-05-10T19:39:13.168Z,39.83
2018-05-10T19:41:39.980Z,37.20
2018-05-10T19:44:06.823Z,33.58
2018-05-10T19:46:33.524Z,31.90
2018-05-10T19:49:00.478Z,35.72
2018-05-10T19:51:27.327Z,37.65
2018-05-10T19:53:54.342Z,35.47
2018-05-10T19:56:21.225Z,38.38
2018-05-10T19:58:47.973Z,33.20
2018-05-10T20:01:14.820Z,38.97
2018-05-10T20:03:41.712Z,35.75
2018-05-10T20:06:08.460Z,36.30
2018-05-10T20:08:35.425Z,37.42
2018-05-10T20:11:02.186Z,35.80
2018-05-10T20:13:29.100Z,37.80
2018-05-10T20:15:55.927Z,37.08
2018-05-10T20:18:22.657Z,37.58
2018-05-10T20:20:50.666Z,36.80
2018-05-10T20:23:17.885Z,35.08
2018-05-10T20:25:44.639Z,40.12
2018-05-10T20:28:12.375Z,36.65
2018-05-10T20:30:39.166Z,32.33
2018-05-10T20:33:05.952Z,35.35
2018-05-10T20:35:32.697Z,36.13
2018-05-10T20:37:59.568Z,31.85
2018-05-10T20:40:26.396Z,36.47
2018-05-10T20:42:53.280Z,34.92
2018-05-10T20:45:20.242Z,33.90
2018-05-10T20:47:47.015Z,34.80
2018-05-10T20:50:13.786Z,36.40
2018-05-10T20:52:40.757Z,35.42
2018-05-10T20:55:07.539Z,38.33
2018-05-10T20:57:34.357Z,34.78
2018-05-10T21:00:01.112Z,32.58
2018-05-10T21:02:27.928Z,37.30
2018-05-10T21:04:54.740Z,32.50
2018-05-10T21:07:21.560Z,29.58
2018-05-10T21:09:48.400Z,32.88
2018-05-10T21:12:21.008Z,33.20
2018-05-10T21:14:47.755Z,33.03
2018-05-10T21:17:14.645Z,34.88
2018-05-10T21:19:41.400Z,32.97
2018-05-10T21:22:08.201Z,29.83
2018-05-10T21:24:35.848Z,28.62
2018-05-10T21:27:02.621Z,32.35
2018-05-10T21:29:30.029Z,32.33
2018-05-10T21:31:56.805Z,32.05
2018-05-10T21:34:23.576Z,29.75
2018-05-10T21:36:50.374Z,30.25
2018-05-10T21:39:17.141Z,36.92
2018-05-10T21:41:44.905Z,32.28
2018-05-10T21:44:11.750Z,31.33
2018-05-10T21:46:38.544Z,30.20
2018-05-10T21:49:05.463Z,31.85
2018-05-10T21:51:32.348Z,31.08
2018-05-10T21:53:59.131Z,33.42
2018-05-10T21:56:25.920Z,31.30
2018-05-10T21:58:52.680Z,35.67
2018-05-10T22:01:19.553Z,29.90
2018-05-10T22:03:46.333Z,31.37
2018-05-10T22:06:13.316Z,30.50
2018-05-10T22:08:40.148Z,33.65
2018-05-10T22:11:06.868Z,30.33
2018-05-10T22:13:33.773Z,31.70
2018-05-10T22:16:00.720Z,30.25
2018-05-10T22:18:27.842Z,30.62
2018-05-10T22:20:54.605Z,28.80
2018-05-10T22:23:21.362Z,26.10
2018-05-10T22:25:48.052Z,28.55
2018-05-10T22:28:14.724Z,29.50
2018-05-10T22:30:41.785Z,29.35
2018-05-10T22:33:08.517Z,31.87
2018-05-10T22:35:35.223Z,33.72
2018-05-10T22:38:01.897Z,27.60
2018-05-10T22:40:28.528Z,29.98
2018-05-10T22:42:55.187Z,27.80
2018-05-10T22:45:21.928Z,27.45
2018-05-10T22:47:48.674Z,28.95
2018-05-10T22:50:15.444Z,26.25
2018-05-10T22:52:42.191Z,28.17
2018-05-10T22:55:09.006Z,29.95
2018-05-10T22:57:35.711Z,28.90
2018-05-10T23:00:02.396Z,28.65
2018-05-10T23:02:29.118Z,25.65
2018-05-10T23:04:55.838Z,24.23
2018-05-10T23:07:22.534Z,29.08
2018-05-10T23:09:49.194Z,26.65
2018-05-10T23:12:15.892Z,25.23
2018-05-10T23:14:42.507Z,24.48
2018-05-10T23:17:09.193Z,24.30
2018-05-10T23:19:35.891Z,24.30
2018-05-10T23:22:02.540Z,29.17
2018-05-10T23:24:29.208Z,25.08
2018-05-10T23:26:55.843Z,27.48
2018-05-10T23:29:22.496Z,24.42
2018-05-10T23:31:49.133Z,22.55
2018-05-10T23:34:15.775Z,22.85
2018-05-10T23:36:42.498Z,24.12
2018-05-10T23:39:10.029Z,24.23
2018-05-10T23:41:36.652Z,25.45
2018-05-10T23:44:03.331Z,23.33
2018-05-10T23:46:30.016Z,23.48
2018-05-10T23:48:56.691Z,22.92
2018-05-10T23:51:23.306Z,21.85
2018-05-10T23:53:49.996Z,24.50
2018-05-10T23:56:16.639Z,23.58
2018-05-10T23:58:43.318Z,23.20
